Time;durP1;ratioP1;P1;durP2;ratioP2;P2;SDS_P1;SDS_P2;PMS_P1;PMS_P2;Temp;Humidity;BMP_temperature;BMP_pressure;BME280_temperature;BME280_humidity;BME280_pressure;Samples;Min_cycle;Max_cycle;Signal;HPM_P1;HPM_P2
2020/12/21 00:00:41;;;;;;;16.07;10.30;;;;;;;;;;4816522;29;20217;-78
2020/12/21 00:03:20;;;;;;;16.47;10.63;;;;;;;;;;4809071;29;20737;-78
2020/12/21 00:05:52;;;;;;;16.57;10.37;;;;;;;;;;4799692;29;20207;-78
2020/12/21 00:08:21;;;;;;;15.50;10.10;;;;;;;;;;4799515;29;20209;-80
2020/12/21 00:10:49;;;;;;;13.27;9.70;;;;;;;;;;4826877;29;20216;-78
2020/12/21 00:13:18;;;;;;;19.80;10.77;;;;;;;;;;4823046;29;20231;-77
2020/12/21 00:15:49;;;;;;;17.20;10.97;;;;;;;;;;4820187;29;20212;-78
2020/12/21 00:18:17;;;;;;;14.60;10.77;;;;;;;;;;4809508;29;20235;-79
2020/12/21 00:20:46;;;;;;;16.93;10.37;;;;;;;;;;4800431;29;20223;-79
2020/12/21 00:23:15;;;;;;;15.33;9.97;;;;;;;;;;4801924;29;20600;-78
2020/12/21 00:25:43;;;;;;;16.67;9.80;;;;;;;;;;4816305;29;20219;-78
2020/12/21 00:28:11;;;;;;;16.27;10.50;;;;;;;;;;4816569;29;20219;-78
2020/12/21 00:30:39;;;;;;;14.80;10.80;;;;;;;;;;4802491;29;20679;-79
2020/12/21 00:33:06;;;;;;;15.37;10.20;;;;;;;;;;4811705;29;20236;-79
2020/12/21 00:35:36;;;;;;;15.23;10.13;;;;;;;;;;4814647;29;20211;-79
2020/12/21 00:38:03;;;;;;;16.93;11.03;;;;;;;;;;4804863;29;20654;-78
2020/12/21 00:40:31;;;;;;;16.30;10.83;;;;;;;;;;4804983;29;20231;-79
2020/12/21 00:42:59;;;;;;;15.20;10.33;;;;;;;;;;4820049;29;20239;-79
2020/12/21 00:45:27;;;;;;;17.43;11.13;;;;;;;;;;4815356;29;20216;-78
2020/12/21 00:47:54;;;;;;;14.83;10.37;;;;;;;;;;4812102;29;20208;-78
2020/12/21 00:50:22;;;;;;;14.43;10.10;;;;;;;;;;4799477;29;20209;-79
2020/12/21 00:52:49;;;;;;;14.50;9.73;;;;;;;;;;4809443;29;20844;-78
2020/12/21 00:55:20;;;;;;;16.43;10.80;;;;;;;;;;4797966;29;20207;-79
2020/12/21 00:57:47;;;;;;;17.00;10.37;;;;;;;;;;4807533;29;20640;-78
2020/12/21 01:00:16;;;;;;;14.53;9.60;;;;;;;;;;4813815;29;20227;-80
2020/12/21 01:02:45;;;;;;;15.43;9.97;;;;;;;;;;4810962;29;20251;-79
2020/12/21 01:05:12;;;;;;;14.50;9.90;;;;;;;;;;4811272;29;20231;-79
2020/12/21 01:07:39;;;;;;;17.83;10.87;;;;;;;;;;4794355;29;20235;-78
2020/12/21 01:10:07;;;;;;;16.57;10.87;;;;;;;;;;4795125;29;22104;-78
2020/12/21 01:12:34;;;;;;;15.20;9.87;;;;;;;;;;4812152;29;20235;-79
2020/12/21 01:15:02;;;;;;;15.27;10.60;;;;;;;;;;4800185;29;20214;-78
2020/12/21 01:17:32;;;;;;;15.30;9.97;;;;;;;;;;4807199;29;20209;-79
2020/12/21 01:20:00;;;;;;;16.23;9.57;;;;;;;;;;4811807;29;20757;-79
2020/12/21 01:22:28;;;;;;;17.20;10.77;;;;;;;;;;4806637;29;20718;-79
2020/12/21 01:24:56;;;;;;;14.43;9.37;;;;;;;;;;4806071;29;20223;-80
2020/12/21 01:27:23;;;;;;;15.17;10.00;;;;;;;;;;4816429;29;20203;-79
2020/12/21 01:29:50;;;;;;;15.03;10.73;;;;;;;;;;4810067;29;20703;-80
2020/12/21 01:32:18;;;;;;;14.23;9.70;;;;;;;;;;4817171;29;20236;-80
2020/12/21 01:34:47;;;;;;;16.67;10.20;;;;;;;;;;4803739;29;20212;-80
2020/12/21 01:37:14;;;;;;;15.33;10.30;;;;;;;;;;4812281;29;20223;-80
2020/12/21 01:39:48;;;;;;;14.67;10.13;;;;;;;;;;4813410;29;20231;-80
2020/12/21 01:42:16;;;;;;;16.80;10.27;;;;;;;;;;4800656;29;20244;-81
2020/12/21 01:44:44;;;;;;;17.50;9.80;;;;;;;;;;4815373;29;20710;-80
2020/12/21 01:47:12;;;;;;;18.27;11.00;;;;;;;;;;4817502;29;20222;-80
2020/12/21 01:49:39;;;;;;;15.20;9.73;;;;;;;;;;4816816;29;20212;-80
2020/12/21 01:52:08;;;;;;;14.63;9.30;;;;;;;;;;4816667;29;20228;-80
2020/12/21 01:54:36;;;;;;;16.07;10.40;;;;;;;;;;4813627;29;20212;-81
2020/12/21 01:57:05;;;;;;;15.13;9.63;;;;;;;;;;4816550;29;20582;-80
2020/12/21 01:59:32;;;;;;;14.97;9.33;;;;;;;;;;4815871;29;20228;-80
2020/12/21 02:02:00;;;;;;;14.90;9.40;;;;;;;;;;4809756;29;20247;-80
2020/12/21 02:04:30;;;;;;;13.33;9.10;;;;;;;;;;4816285;29;20216;-80
2020/12/21 02:07:00;;;;;;;15.93;10.07;;;;;;;;;;4814762;29;20212;-80
2020/12/21 02:09:29;;;;;;;16.73;10.10;;;;;;;;;;4806586;29;20216;-81
2020/12/21 02:11:56;;;;;;;16.70;9.43;;;;;;;;;;4826189;29;20242;-80
2020/12/21 02:14:24;;;;;;;16.03;10.13;;;;;;;;;;4799937;29;20204;-80
2020/12/21 02:16:51;;;;;;;14.53;9.00;;;;;;;;;;4812035;29;20218;-82
2020/12/21 02:19:19;;;;;;;14.57;9.23;;;;;;;;;;4812821;29;20222;-80
2020/12/21 02:21:47;;;;;;;14.33;9.70;;;;;;;;;;4812265;29;20236;-80
2020/12/21 02:24:15;;;;;;;14.57;9.57;;;;;;;;;;4831741;29;20216;-80
2020/12/21 02:26:43;;;;;;;16.43;10.27;;;;;;;;;;4803828;29;20570;-80
2020/12/21 02:29:10;;;;;;;17.53;10.27;;;;;;;;;;4816738;29;20216;-80
2020/12/21 02:31:38;;;;;;;20.70;10.87;;;;;;;;;;4810512;29;20240;-80
2020/12/21 02:34:05;;;;;;;16.30;10.13;;;;;;;;;;4818512;29;20687;-80
2020/12/21 02:36:33;;;;;;;17.73;10.30;;;;;;;;;;4816980;29;20208;-80
2020/12/21 02:39:01;;;;;;;13.57;9.47;;;;;;;;;;4815116;29;20216;-80
2020/12/21 02:41:29;;;;;;;14.53;9.87;;;;;;;;;;4818670;29;20247;-80
2020/12/21 02:43:56;;;;;;;15.23;10.17;;;;;;;;;;4797505;29;20225;-80
2020/12/21 02:46:25;;;;;;;14.10;9.30;;;;;;;;;;4813418;29;20216;-80
2020/12/21 02:48:53;;;;;;;14.23;10.00;;;;;;;;;;4813619;29;20211;-82
2020/12/21 02:51:20;;;;;;;15.03;9.30;;;;;;;;;;4801607;29;20236;-80
2020/12/21 02:53:48;;;;;;;15.80;9.90;;;;;;;;;;4796129;29;20216;-80
2020/12/21 02:56:16;;;;;;;14.17;9.37;;;;;;;;;;4803982;29;20223;-81
2020/12/21 02:58:44;;;;;;;15.33;9.47;;;;;;;;;;4815878;29;20212;-80
2020/12/21 03:01:12;;;;;;;15.20;9.97;;;;;;;;;;4816886;29;20228;-80
2020/12/21 03:03:39;;;;;;;16.07;9.57;;;;;;;;;;4800632;29;20216;-80
2020/12/21 03:06:07;;;;;;;15.20;9.90;;;;;;;;;;4814005;29;20209;-80
2020/12/21 03:08:35;;;;;;;13.47;9.07;;;;;;;;;;4835234;29;20223;-82
2020/12/21 03:11:03;;;;;;;15.17;9.13;;;;;;;;;;4822879;29;20216;-80
2020/12/21 03:13:31;;;;;;;12.73;8.73;;;;;;;;;;4812751;29;20235;-80
2020/12/21 03:15:58;;;;;;;15.77;9.37;;;;;;;;;;4821300;29;20310;-80
2020/12/21 03:18:40;;;;;;;11.93;8.37;;;;;;;;;;4813777;29;20235;-80
2020/12/21 03:21:07;;;;;;;14.13;9.13;;;;;;;;;;4809956;29;20232;-80
2020/12/21 03:23:35;;;;;;;16.00;9.40;;;;;;;;;;4817163;29;20243;-80
2020/12/21 03:26:03;;;;;;;17.63;11.07;;;;;;;;;;4813078;29;20217;-81
2020/12/21 03:28:32;;;;;;;13.60;9.50;;;;;;;;;;4808231;29;20215;-80
2020/12/21 03:30:59;;;;;;;13.97;10.00;;;;;;;;;;4814442;29;20216;-80
2020/12/21 03:33:27;;;;;;;14.80;8.97;;;;;;;;;;4810034;29;20244;-80
2020/12/21 03:35:54;;;;;;;14.37;9.67;;;;;;;;;;4813415;29;20223;-81
2020/12/21 03:38:22;;;;;;;15.03;9.43;;;;;;;;;;4816910;29;20215;-81
2020/12/21 03:40:49;;;;;;;14.43;9.67;;;;;;;;;;4816110;29;20220;-80
2020/12/21 03:43:19;;;;;;;16.03;9.70;;;;;;;;;;4813882;29;20242;-80
2020/12/21 03:45:49;;;;;;;18.40;10.83;;;;;;;;;;4816012;29;20208;-81
2020/12/21 03:48:17;;;;;;;14.93;9.73;;;;;;;;;;4812970;29;20208;-81
2020/12/21 03:50:45;;;;;;;16.87;10.10;;;;;;;;;;4794782;29;20223;-80
2020/12/21 03:53:12;;;;;;;14.73;9.77;;;;;;;;;;4797198;29;20236;-82
2020/12/21 03:55:40;;;;;;;13.17;8.40;;;;;;;;;;4812942;29;20726;-80
2020/12/21 03:58:08;;;;;;;12.50;7.87;;;;;;;;;;4813068;29;20695;-80
2020/12/21 04:00:35;;;;;;;14.83;9.30;;;;;;;;;;4801523;29;20605;-80
2020/12/21 04:03:03;;;;;;;14.33;9.33;;;;;;;;;;4814975;29;20609;-82
2020/12/21 04:05:44;;;;;;;13.83;8.13;;;;;;;;;;4802697;29;20207;-80
2020/12/21 04:08:12;;;;;;;15.87;9.03;;;;;;;;;;4802072;29;20219;-80
2020/12/21 04:10:43;;;;;;;15.10;9.03;;;;;;;;;;4812256;29;20223;-80
2020/12/21 04:13:11;;;;;;;16.57;8.70;;;;;;;;;;4813170;29;20236;-80
2020/12/21 04:15:38;;;;;;;14.23;8.40;;;;;;;;;;4798482;29;20216;-80
2020/12/21 04:18:07;;;;;;;12.70;8.60;;;;;;;;;;4816628;29;20207;-80
2020/12/21 04:20:34;;;;;;;14.03;9.13;;;;;;;;;;4809753;29;20243;-81
2020/12/21 04:23:02;;;;;;;13.73;9.20;;;;;;;;;;4816436;29;20609;-80
2020/12/21 04:25:30;;;;;;;13.97;8.80;;;;;;;;;;4807950;29;20214;-80
2020/12/21 04:27:57;;;;;;;14.73;9.13;;;;;;;;;;4813583;29;20217;-82
2020/12/21 04:30:24;;;;;;;14.70;9.13;;;;;;;;;;4807240;29;20238;-79
2020/12/21 04:32:52;;;;;;;13.53;9.20;;;;;;;;;;4810343;29;20239;-79
2020/12/21 04:35:21;;;;;;;13.43;8.70;;;;;;;;;;4814960;29;20229;-80
2020/12/21 04:37:50;;;;;;;11.17;7.70;;;;;;;;;;4809757;29;20224;-80
2020/12/21 04:40:18;;;;;;;14.47;9.27;;;;;;;;;;4815819;29;20228;-81
2020/12/21 04:42:47;;;;;;;13.57;9.07;;;;;;;;;;4809629;29;20258;-81
2020/12/21 04:45:15;;;;;;;15.17;8.60;;;;;;;;;;4798625;29;20592;-80
2020/12/21 04:47:43;;;;;;;15.40;9.77;;;;;;;;;;4808383;29;20227;-80
2020/12/21 04:50:12;;;;;;;12.20;8.63;;;;;;;;;;4794768;29;20694;-80
2020/12/21 04:52:48;;;;;;;11.83;7.83;;;;;;;;;;4812453;29;20239;-81
2020/12/21 04:55:17;;;;;;;12.70;8.80;;;;;;;;;;4832279;29;20212;-81
2020/12/21 04:57:58;;;;;;;13.87;9.33;;;;;;;;;;4807057;29;20212;-80
2020/12/21 05:00:27;;;;;;;13.60;8.83;;;;;;;;;;4813038;29;20482;-80
2020/12/21 05:02:55;;;;;;;14.47;9.80;;;;;;;;;;4811748;29;20250;-80
2020/12/21 05:05:33;;;;;;;15.73;9.20;;;;;;;;;;4808275;29;20212;-80
2020/12/21 05:08:10;;;;;;;15.00;8.80;;;;;;;;;;4823434;29;20621;-80
2020/12/21 05:10:39;;;;;;;13.77;7.97;;;;;;;;;;4823050;29;20223;-81
2020/12/21 05:13:08;;;;;;;12.73;9.43;;;;;;;;;;4796749;29;20224;-80
2020/12/21 05:15:35;;;;;;;15.83;9.13;;;;;;;;;;4810939;29;20212;-80
2020/12/21 05:18:08;;;;;;;13.50;8.70;;;;;;;;;;4813269;29;20259;-80
2020/12/21 05:20:37;;;;;;;12.33;8.93;;;;;;;;;;4811358;29;20235;-80
2020/12/21 05:23:06;;;;;;;14.07;8.47;;;;;;;;;;4823417;29;20227;-80
2020/12/21 05:25:35;;;;;;;14.97;8.83;;;;;;;;;;4816277;29;20212;-80
2020/12/21 05:28:12;;;;;;;14.20;8.77;;;;;;;;;;4812826;29;20216;-80
2020/12/21 05:30:53;;;;;;;12.70;8.70;;;;;;;;;;4808322;29;20575;-80
2020/12/21 05:33:21;;;;;;;17.50;9.57;;;;;;;;;;4809262;29;20243;-82
2020/12/21 05:35:49;;;;;;;16.47;9.87;;;;;;;;;;4810098;29;20219;-80
2020/12/21 05:38:25;;;;;;;14.57;9.17;;;;;;;;;;4826648;29;20208;-80
2020/12/21 05:40:55;;;;;;;15.00;9.50;;;;;;;;;;4814468;29;20227;-81
2020/12/21 05:43:29;;;;;;;19.60;10.67;;;;;;;;;;4828723;29;20227;-80
2020/12/21 05:46:04;;;;;;;16.17;9.57;;;;;;;;;;4818773;29;20212;-82
2020/12/21 05:48:33;;;;;;;18.10;10.00;;;;;;;;;;4830884;29;20217;-80
2020/12/21 05:51:02;;;;;;;18.40;10.43;;;;;;;;;;4830186;29;20223;-80
2020/12/21 05:53:34;;;;;;;15.93;9.57;;;;;;;;;;4831600;29;21190;-82
2020/12/21 05:56:02;;;;;;;16.70;9.77;;;;;;;;;;4828910;29;20683;-81
2020/12/21 05:58:33;;;;;;;19.70;9.73;;;;;;;;;;4829527;29;20710;-81
2020/12/21 06:01:02;;;;;;;17.33;9.13;;;;;;;;;;4846087;29;20234;-81
2020/12/21 06:03:49;;;;;;;17.07;9.20;;;;;;;;;;4840075;29;20223;-82
2020/12/21 06:06:19;;;;;;;14.83;9.60;;;;;;;;;;4840097;29;20209;-82
2020/12/21 06:08:48;;;;;;;13.33;9.07;;;;;;;;;;4838222;29;20204;-82
2020/12/21 06:11:21;;;;;;;48.17;12.93;;;;;;;;;;4830282;29;20220;-81
2020/12/21 06:13:54;;;;;;;21.73;11.37;;;;;;;;;;4811154;29;20695;-80
2020/12/21 06:16:22;;;;;;;74.13;15.43;;;;;;;;;;4815273;29;20220;-80
2020/12/21 06:18:59;;;;;;;29.73;11.03;;;;;;;;;;4800470;29;20580;-81
2020/12/21 06:21:29;;;;;;;30.60;12.20;;;;;;;;;;4818813;29;20220;-80
2020/12/21 06:23:57;;;;;;;30.83;10.83;;;;;;;;;;4804350;29;20212;-80
2020/12/21 06:26:33;;;;;;;134.30;14.60;;;;;;;;;;4805002;29;20216;-80
2020/12/21 06:29:02;;;;;;;80.37;11.30;;;;;;;;;;4814803;29;20216;-80
2020/12/21 06:31:41;;;;;;;61.53;11.57;;;;;;;;;;4809436;29;20236;-80
2020/12/21 06:34:10;;;;;;;48.57;11.33;;;;;;;;;;4818129;29;20207;-80
2020/12/21 06:36:38;;;;;;;46.23;10.90;;;;;;;;;;4801428;29;20215;-80
2020/12/21 06:39:06;;;;;;;48.40;10.73;;;;;;;;;;4819698;29;20212;-81
2020/12/21 06:41:35;;;;;;;34.17;9.37;;;;;;;;;;4818477;29;20723;-80
2020/12/21 06:44:07;;;;;;;15.40;9.90;;;;;;;;;;4811981;29;20212;-80
2020/12/21 06:46:35;;;;;;;16.37;9.13;;;;;;;;;;4814749;29;20208;-80
2020/12/21 06:49:08;;;;;;;20.30;9.53;;;;;;;;;;4816805;29;20224;-80
2020/12/21 06:51:38;;;;;;;16.70;8.30;;;;;;;;;;4803616;29;20240;-80
2020/12/21 06:54:06;;;;;;;15.20;9.07;;;;;;;;;;4818119;29;20222;-80
2020/12/21 06:56:35;;;;;;;17.23;10.00;;;;;;;;;;4816999;29;20212;-80
2020/12/21 06:59:03;;;;;;;13.40;8.63;;;;;;;;;;4814344;29;20474;-82
2020/12/21 07:01:30;;;;;;;12.77;8.60;;;;;;;;;;4816464;29;20239;-80
2020/12/21 07:03:58;;;;;;;22.10;9.27;;;;;;;;;;4819857;29;20216;-80
2020/12/21 07:06:25;;;;;;;15.57;8.30;;;;;;;;;;4797593;29;20215;-80
2020/12/21 07:08:58;;;;;;;15.23;8.67;;;;;;;;;;4814989;29;20586;-80
2020/12/21 07:11:26;;;;;;;16.20;8.53;;;;;;;;;;4822677;29;20207;-80
2020/12/21 07:13:55;;;;;;;16.03;9.00;;;;;;;;;;4810371;29;20231;-80
2020/12/21 07:16:22;;;;;;;12.97;8.37;;;;;;;;;;4812615;29;20212;-80
2020/12/21 07:18:50;;;;;;;16.03;9.13;;;;;;;;;;4816079;29;20219;-80
2020/12/21 07:21:17;;;;;;;20.13;9.37;;;;;;;;;;4815844;29;20224;-80
2020/12/21 07:23:45;;;;;;;13.57;8.10;;;;;;;;;;4794894;29;20724;-81
2020/12/21 07:26:14;;;;;;;20.40;9.70;;;;;;;;;;4816818;29;20220;-81
2020/12/21 07:28:45;;;;;;;21.30;8.47;;;;;;;;;;4804658;29;20224;-80
2020/12/21 07:31:15;;;;;;;20.33;8.50;;;;;;;;;;4817764;29;20207;-80
2020/12/21 07:33:53;;;;;;;16.97;9.37;;;;;;;;;;4818708;29;20230;-80
2020/12/21 07:36:23;;;;;;;16.80;9.07;;;;;;;;;;4811278;29;20686;-80
2020/12/21 07:38:51;;;;;;;17.73;9.60;;;;;;;;;;4803312;29;20216;-80
2020/12/21 07:41:23;;;;;;;20.40;10.73;;;;;;;;;;4822937;29;20223;-80
2020/12/21 07:44:07;;;;;;;22.43;10.90;;;;;;;;;;4822706;29;20692;-80
2020/12/21 07:46:39;;;;;;;18.07;10.03;;;;;;;;;;4823884;29;20211;-80
2020/12/21 07:49:08;;;;;;;20.17;9.93;;;;;;;;;;4802357;29;20218;-80
2020/12/21 07:51:38;;;;;;;18.27;9.80;;;;;;;;;;4810268;29;20224;-80
2020/12/21 07:54:06;;;;;;;20.53;11.60;;;;;;;;;;4817474;29;20219;-80
2020/12/21 07:56:34;;;;;;;22.17;11.40;;;;;;;;;;4822349;29;20207;-81
2020/12/21 07:59:15;;;;;;;20.60;10.47;;;;;;;;;;4802402;29;20224;-80
2020/12/21 08:01:45;;;;;;;22.20;11.50;;;;;;;;;;4824196;29;20235;-80
2020/12/21 08:04:16;;;;;;;22.63;11.30;;;;;;;;;;4821785;29;20219;-81
2020/12/21 08:06:47;;;;;;;20.37;11.17;;;;;;;;;;4816099;29;20215;-80
2020/12/21 08:09:15;;;;;;;15.63;10.77;;;;;;;;;;4814262;29;20590;-80
2020/12/21 08:11:43;;;;;;;17.67;10.10;;;;;;;;;;4816723;29;20330;-82
2020/12/21 08:14:16;;;;;;;25.53;10.80;;;;;;;;;;4820145;29;20235;-81
2020/12/21 08:16:44;;;;;;;18.87;10.37;;;;;;;;;;4822544;29;20219;-80
2020/12/21 08:19:20;;;;;;;18.47;10.10;;;;;;;;;;4825043;29;20223;-80
2020/12/21 08:21:49;;;;;;;24.47;11.60;;;;;;;;;;4818701;29;20650;-80
2020/12/21 08:24:16;;;;;;;17.47;9.20;;;;;;;;;;4814844;29;20215;-80
2020/12/21 08:26:46;;;;;;;13.53;8.73;;;;;;;;;;4829180;29;20219;-80
2020/12/21 08:29:19;;;;;;;10.60;7.83;;;;;;;;;;4825149;29;20220;-80
2020/12/21 08:31:47;;;;;;;11.50;7.80;;;;;;;;;;4817478;29;20597;-81
2020/12/21 08:34:16;;;;;;;12.27;7.77;;;;;;;;;;4814290;29;20727;-80
2020/12/21 08:36:43;;;;;;;11.50;7.93;;;;;;;;;;4812113;29;20222;-80
2020/12/21 08:39:13;;;;;;;11.23;7.90;;;;;;;;;;4812811;29;20216;-81
2020/12/21 08:41:44;;;;;;;11.07;7.93;;;;;;;;;;4816488;29;20714;-80
2020/12/21 08:47:37;;;;;;;16.33;9.13;;;;;;;;;;4799248;29;20223;-81
2020/12/21 08:50:06;;;;;;;12.77;8.63;;;;;;;;;;4818771;29;20219;-80
2020/12/21 08:52:34;;;;;;;18.07;9.27;;;;;;;;;;4800639;29;20224;-80
2020/12/21 08:55:01;;;;;;;18.07;9.70;;;;;;;;;;4810758;29;20583;-81
2020/12/21 08:57:30;;;;;;;14.93;8.73;;;;;;;;;;4812065;29;20212;-80
2020/12/21 08:59:59;;;;;;;16.00;9.40;;;;;;;;;;4814279;29;20216;-80
2020/12/21 09:02:36;;;;;;;17.53;9.97;;;;;;;;;;4836583;29;20246;-82
2020/12/21 09:05:09;;;;;;;19.40;9.63;;;;;;;;;;4841948;29;20207;-80
2020/12/21 09:07:37;;;;;;;18.70;10.27;;;;;;;;;;4805798;29;20207;-80
2020/12/21 09:10:05;;;;;;;14.30;9.30;;;;;;;;;;4813771;29;20673;-79
2020/12/21 09:12:33;;;;;;;20.03;10.33;;;;;;;;;;4813958;29;20223;-80
2020/12/21 09:15:02;;;;;;;15.90;9.83;;;;;;;;;;4816460;29;20221;-80
2020/12/21 09:17:31;;;;;;;14.10;9.57;;;;;;;;;;4818547;29;20208;-79
2020/12/21 09:20:01;;;;;;;15.13;9.90;;;;;;;;;;4810529;29;20220;-80
2020/12/21 09:22:30;;;;;;;15.93;9.43;;;;;;;;;;4797304;29;20235;-80
2020/12/21 09:25:00;;;;;;;13.87;9.50;;;;;;;;;;4814605;29;20575;-80
2020/12/21 09:27:48;;;;;;;16.40;9.30;;;;;;;;;;4819331;29;20215;-80
2020/12/21 09:30:23;;;;;;;13.17;8.20;;;;;;;;;;4819247;29;20211;-80
2020/12/21 09:32:52;;;;;;;16.63;10.27;;;;;;;;;;4817866;29;20234;-80
2020/12/21 09:35:22;;;;;;;15.17;10.13;;;;;;;;;;4823379;29;20218;-80
2020/12/21 09:37:50;;;;;;;15.17;10.30;;;;;;;;;;4820769;29;20220;-80
2020/12/21 09:40:36;;;;;;;16.17;9.63;;;;;;;;;;4826572;29;20218;-80
2020/12/21 09:43:17;;;;;;;17.23;9.13;;;;;;;;;;4809748;29;20238;-80
2020/12/21 09:45:46;;;;;;;15.83;9.93;;;;;;;;;;4821807;29;20211;-80
2020/12/21 09:48:14;;;;;;;16.20;10.40;;;;;;;;;;4803581;29;20204;-80
2020/12/21 09:50:42;;;;;;;18.83;9.80;;;;;;;;;;4818039;29;20220;-80
2020/12/21 09:53:11;;;;;;;19.13;11.00;;;;;;;;;;4798641;29;20224;-80
2020/12/21 09:55:38;;;;;;;18.43;11.17;;;;;;;;;;4808466;29;20208;-80
2020/12/21 09:58:17;;;;;;;15.77;9.57;;;;;;;;;;4822995;29;20214;-80
2020/12/21 10:00:46;;;;;;;15.07;9.23;;;;;;;;;;4808851;29;20220;-80
2020/12/21 10:03:14;;;;;;;16.33;9.70;;;;;;;;;;4824081;29;20698;-80
2020/12/21 10:05:42;;;;;;;19.73;9.97;;;;;;;;;;4807488;29;20276;-80
2020/12/21 10:08:11;;;;;;;16.33;10.30;;;;;;;;;;4805196;29;20219;-80
2020/12/21 10:10:38;;;;;;;17.73;10.37;;;;;;;;;;4822719;29;20211;-80
2020/12/21 10:13:06;;;;;;;15.50;10.27;;;;;;;;;;4803928;29;20703;-80
2020/12/21 10:15:34;;;;;;;15.40;9.77;;;;;;;;;;4819312;29;20211;-80
2020/12/21 10:18:01;;;;;;;16.87;11.07;;;;;;;;;;4819081;29;20231;-81
2020/12/21 10:20:29;;;;;;;18.30;11.20;;;;;;;;;;4805516;29;20200;-80
2020/12/21 10:22:56;;;;;;;18.13;11.30;;;;;;;;;;4808702;29;20236;-80
2020/12/21 10:25:26;;;;;;;17.50;11.03;;;;;;;;;;4814834;29;20211;-80
2020/12/21 10:27:55;;;;;;;17.33;11.30;;;;;;;;;;4821326;29;20243;-80
2020/12/21 10:30:26;;;;;;;17.23;10.93;;;;;;;;;;4822806;29;20208;-80
2020/12/21 10:32:55;;;;;;;17.97;10.97;;;;;;;;;;4804240;29;20230;-80
2020/12/21 10:35:22;;;;;;;16.53;10.43;;;;;;;;;;4818257;29;20216;-80
2020/12/21 10:37:50;;;;;;;17.43;11.40;;;;;;;;;;4803715;29;20230;-81
2020/12/21 10:40:17;;;;;;;15.73;10.47;;;;;;;;;;4806598;29;20228;-80
2020/12/21 10:42:46;;;;;;;18.50;11.90;;;;;;;;;;4831016;29;20239;-80
2020/12/21 10:45:14;;;;;;;17.13;10.00;;;;;;;;;;4817034;29;20488;-80
2020/12/21 10:47:41;;;;;;;18.07;10.97;;;;;;;;;;4816039;29;20867;-80
2020/12/21 10:50:10;;;;;;;17.47;10.47;;;;;;;;;;4819047;29;20227;-80
2020/12/21 10:52:38;;;;;;;17.80;11.13;;;;;;;;;;4809372;29;20230;-80
2020/12/21 10:55:07;;;;;;;16.80;11.43;;;;;;;;;;4803572;29;20215;-80
2020/12/21 10:57:35;;;;;;;18.57;11.23;;;;;;;;;;4795270;29;23850;-80
2020/12/21 11:00:05;;;;;;;16.57;10.37;;;;;;;;;;4804825;29;20634;-80
2020/12/21 11:02:32;;;;;;;24.03;13.20;;;;;;;;;;4816008;29;20244;-80
2020/12/21 11:05:00;;;;;;;21.63;11.83;;;;;;;;;;4796612;29;20312;-80
2020/12/21 11:07:31;;;;;;;19.33;12.03;;;;;;;;;;4807519;29;20243;-81
2020/12/21 11:10:09;;;;;;;18.10;10.97;;;;;;;;;;4812457;29;20208;-80
2020/12/21 11:12:38;;;;;;;18.40;11.43;;;;;;;;;;4810781;29;20698;-80
2020/12/21 11:15:07;;;;;;;18.47;11.33;;;;;;;;;;4806559;29;20224;-81
2020/12/21 11:17:35;;;;;;;18.13;11.40;;;;;;;;;;4807285;29;20221;-80
2020/12/21 11:20:03;;;;;;;17.30;11.50;;;;;;;;;;4815972;29;20230;-80
2020/12/21 11:22:31;;;;;;;19.90;11.60;;;;;;;;;;4816308;29;20255;-81
2020/12/21 11:25:00;;;;;;;21.07;12.60;;;;;;;;;;4799834;29;20218;-80
2020/12/21 11:27:28;;;;;;;21.27;13.30;;;;;;;;;;4814776;29;20212;-80
2020/12/21 11:29:56;;;;;;;23.50;13.37;;;;;;;;;;4814782;29;20713;-80
2020/12/21 11:32:25;;;;;;;19.40;11.80;;;;;;;;;;4801443;29;20228;-80
2020/12/21 11:34:53;;;;;;;21.33;13.07;;;;;;;;;;4801709;29;20213;-81
2020/12/21 11:37:21;;;;;;;21.00;12.37;;;;;;;;;;4812080;29;20226;-81
2020/12/21 11:39:49;;;;;;;23.00;12.93;;;;;;;;;;4815981;29;20224;-81
2020/12/21 11:42:16;;;;;;;16.90;12.00;;;;;;;;;;4817845;29;20241;-80
2020/12/21 11:44:44;;;;;;;21.40;13.00;;;;;;;;;;4814498;29;20336;-80
2020/12/21 11:47:12;;;;;;;19.63;12.50;;;;;;;;;;4807593;29;20212;-79
2020/12/21 11:49:42;;;;;;;22.87;13.47;;;;;;;;;;4815154;29;20255;-80
2020/12/21 11:52:10;;;;;;;21.23;12.37;;;;;;;;;;4797295;29;20228;-80
2020/12/21 11:54:38;;;;;;;22.17;13.37;;;;;;;;;;4801297;29;20208;-79
2020/12/21 11:57:06;;;;;;;21.73;13.63;;;;;;;;;;4789126;29;20212;-80
2020/12/21 11:59:34;;;;;;;19.93;12.43;;;;;;;;;;4818509;29;20220;-78
2020/12/21 12:02:02;;;;;;;19.33;12.47;;;;;;;;;;4835605;29;20219;-78
2020/12/21 12:04:30;;;;;;;20.60;12.70;;;;;;;;;;4810582;29;20279;-79
2020/12/21 12:07:02;;;;;;;19.70;12.07;;;;;;;;;;4778575;29;20211;-80
2020/12/21 12:09:30;;;;;;;18.40;12.17;;;;;;;;;;4795267;29;20216;-80
2020/12/21 12:11:58;;;;;;;19.93;11.97;;;;;;;;;;4799687;29;20246;-80
2020/12/21 12:14:25;;;;;;;16.73;11.73;;;;;;;;;;4815737;29;20242;-80
2020/12/21 12:16:55;;;;;;;18.33;12.63;;;;;;;;;;4812587;29;20580;-80
2020/12/21 12:19:23;;;;;;;16.93;10.97;;;;;;;;;;4797406;29;20294;-80
2020/12/21 12:21:51;;;;;;;16.73;10.93;;;;;;;;;;4811387;29;20239;-80
2020/12/21 12:24:50;;;;;;;17.67;11.40;;;;;;;;;;4799554;29;20239;-79
2020/12/21 12:27:20;;;;;;;15.93;10.63;;;;;;;;;;4835114;29;20667;-82
2020/12/21 12:29:50;;;;;;;16.83;11.53;;;;;;;;;;4820488;29;20215;-80
2020/12/21 12:32:21;;;;;;;17.87;10.50;;;;;;;;;;4817987;29;20240;-80
2020/12/21 12:34:52;;;;;;;15.40;10.33;;;;;;;;;;4792850;29;20211;-81
2020/12/21 12:37:21;;;;;;;15.10;9.67;;;;;;;;;;4803988;29;20593;-80
2020/12/21 12:39:52;;;;;;;18.03;11.17;;;;;;;;;;4802381;29;20211;-80
2020/12/21 12:42:28;;;;;;;12.77;9.97;;;;;;;;;;4798827;29;20243;-81
2020/12/21 12:44:59;;;;;;;17.83;10.97;;;;;;;;;;4814518;29;20255;-80
2020/12/21 12:47:33;;;;;;;17.83;11.77;;;;;;;;;;4814661;29;20220;-80
2020/12/21 12:50:10;;;;;;;17.03;11.30;;;;;;;;;;4800738;29;20478;-81
2020/12/21 12:52:46;;;;;;;16.73;10.97;;;;;;;;;;4809817;29;20240;-81
2020/12/21 12:55:18;;;;;;;13.27;9.57;;;;;;;;;;4822384;29;20211;-79
2020/12/21 12:58:02;;;;;;;16.13;9.80;;;;;;;;;;4818458;29;20223;-80
2020/12/21 13:01:01;;;;;;;10.70;8.03;;;;;;;;;;4815984;29;20212;-81
2020/12/21 13:03:34;;;;;;;12.47;8.27;;;;;;;;;;4785860;29;20235;-80
2020/12/21 13:06:23;;;;;;;9.77;7.93;;;;;;;;;;4822172;29;20191;-80
2020/12/21 13:09:17;;;;;;;10.23;7.33;;;;;;;;;;4818534;29;20200;-80
2020/12/21 13:12:38;;;;;;;9.87;7.00;;;;;;;;;;4833728;29;20203;-84
2020/12/21 13:20:27;;;;;;;9.03;6.13;;;;;;;;;;4779684;29;20204;-81
2020/12/21 13:23:09;;;;;;;8.77;6.30;;;;;;;;;;4802835;29;20244;-81
2020/12/21 13:25:53;;;;;;;7.90;5.53;;;;;;;;;;4784218;29;20216;-83
2020/12/21 13:28:55;;;;;;;8.43;5.73;;;;;;;;;;4805130;29;20675;-81
2020/12/21 13:31:58;;;;;;;8.97;5.60;;;;;;;;;;4785698;29;20247;-79
2020/12/21 13:34:34;;;;;;;7.83;5.53;;;;;;;;;;4800131;29;20216;-82
2020/12/21 13:37:12;;;;;;;10.30;6.00;;;;;;;;;;4810970;29;20212;-83
2020/12/21 13:39:50;;;;;;;12.47;5.93;;;;;;;;;;4825959;29;20216;-81
2020/12/21 13:43:23;;;;;;;7.80;5.33;;;;;;;;;;4819634;29;20234;-82
2020/12/21 13:46:19;;;;;;;10.03;5.73;;;;;;;;;;4804794;29;20217;-81
2020/12/21 13:49:20;;;;;;;9.33;5.87;;;;;;;;;;4823723;29;20219;-81
2020/12/21 13:52:20;;;;;;;7.83;5.57;;;;;;;;;;4787433;29;20258;-81
2020/12/21 14:09:35;;;;;;;12.70;7.37;;;;;;;;;;4818731;29;20211;-81
2020/12/21 14:12:54;;;;;;;8.87;7.47;;;;;;;;;;4819467;29;20242;-80
2020/12/21 14:15:26;;;;;;;17.57;10.43;;;;;;;;;;4833305;29;20204;-81
2020/12/21 14:17:54;;;;;;;16.87;10.33;;;;;;;;;;4805837;29;20242;-82
2020/12/21 14:20:22;;;;;;;16.70;12.37;;;;;;;;;;4814824;29;20219;-80
2020/12/21 14:22:56;;;;;;;22.00;12.93;;;;;;;;;;4794242;29;20227;-81
2020/12/21 14:25:25;;;;;;;13.83;9.30;;;;;;;;;;4820160;29;20887;-81
2020/12/21 14:27:53;;;;;;;15.63;10.50;;;;;;;;;;4817776;29;20220;-81
2020/12/21 14:30:21;;;;;;;12.63;8.73;;;;;;;;;;4803290;29;20216;-81
2020/12/21 14:32:50;;;;;;;11.90;8.07;;;;;;;;;;4806820;29;20243;-79
2020/12/21 14:35:21;;;;;;;10.77;7.47;;;;;;;;;;4804545;29;20216;-80
2020/12/21 14:37:51;;;;;;;12.70;8.50;;;;;;;;;;4804316;29;20223;-80
2020/12/21 14:40:21;;;;;;;11.17;7.83;;;;;;;;;;4804705;29;20399;-80
2020/12/21 14:42:50;;;;;;;12.23;7.90;;;;;;;;;;4798601;29;20239;-79
2020/12/21 14:45:18;;;;;;;14.63;8.03;;;;;;;;;;4799128;29;20247;-80
2020/12/21 14:47:47;;;;;;;12.97;8.00;;;;;;;;;;4800765;29;20216;-80
2020/12/21 14:50:15;;;;;;;13.40;8.33;;;;;;;;;;4793133;29;20678;-81
2020/12/21 14:52:43;;;;;;;12.00;8.70;;;;;;;;;;4796329;29;20248;-81
2020/12/21 14:55:13;;;;;;;10.53;7.53;;;;;;;;;;4807709;29;20224;-80
2020/12/21 14:57:52;;;;;;;10.53;7.83;;;;;;;;;;4849799;29;20206;-79
2020/12/21 15:00:24;;;;;;;12.73;8.17;;;;;;;;;;4814797;29;20208;-81
2020/12/21 15:03:00;;;;;;;11.37;7.53;;;;;;;;;;4813487;29;20250;-81
2020/12/21 15:05:41;;;;;;;12.70;8.40;;;;;;;;;;4802675;29;20736;-80
2020/12/21 15:08:11;;;;;;;11.87;7.97;;;;;;;;;;4806044;29;20219;-81